createdAt,value
2023-12-15T00:00:02.952Z,1009.95
2023-12-15T00:01:02.993Z,1010.00
2023-12-15T00:02:03.050Z,1010.04
2023-12-15T00:03:03.088Z,1010.07
2023-12-15T00:04:02.984Z,1010.08
2023-12-15T00:05:02.983Z,1010.12
2023-12-15T00:06:02.936Z,1010.12
2023-12-15T00:07:02.917Z,1010.19
2023-12-15T00:08:02.997Z,1010.17
2023-12-15T00:09:02.938Z,1010.12
2023-12-15T00:10:02.913Z,1010.17
2023-12-15T00:11:03.765Z,1010.15
2023-12-15T00:12:02.874Z,1010.15
2023-12-15T00:13:02.854Z,1010.19
2023-12-15T00:14:02.912Z,1010.19
2023-12-15T00:15:02.878Z,1010.14
2023-12-15T00:16:02.842Z,1010.20
2023-12-15T00:17:03.816Z,1010.12
2023-12-15T00:18:03.092Z,1010.12
2023-12-15T00:19:02.888Z,1010.12
2023-12-15T00:20:03.018Z,1010.17
2023-12-15T00:21:02.808Z,1010.17
2023-12-15T00:22:02.829Z,1010.19
2023-12-15T00:23:02.843Z,1010.15
2023-12-15T00:24:02.821Z,1010.14
2023-12-15T00:25:02.790Z,1010.17
2023-12-15T00:26:02.801Z,1010.14
2023-12-15T00:27:02.759Z,1010.17
2023-12-15T00:28:02.820Z,1010.18
2023-12-15T00:29:02.782Z,1010.24
2023-12-15T00:30:02.751Z,1010.27
2023-12-15T00:31:02.802Z,1010.27
2023-12-15T00:32:02.759Z,1010.25
2023-12-15T00:33:02.794Z,1010.23
2023-12-15T00:34:02.988Z,1010.27
2023-12-15T00:35:02.733Z,1010.26
2023-12-15T00:36:02.718Z,1010.22
2023-12-15T00:37:02.691Z,1010.24
2023-12-15T00:38:02.799Z,1010.24
2023-12-15T00:39:02.724Z,1010.27
2023-12-15T00:40:02.717Z,1010.29
2023-12-15T00:41:02.715Z,1010.31
2023-12-15T00:42:02.674Z,1010.34
2023-12-15T00:43:02.661Z,1010.38
2023-12-15T00:44:02.758Z,1010.33
2023-12-15T00:45:02.649Z,1010.34
2023-12-15T00:46:02.653Z,1010.32
2023-12-15T00:47:02.830Z,1010.33
2023-12-15T00:48:02.671Z,1010.41
2023-12-15T00:49:02.868Z,1010.36
2023-12-15T00:50:02.940Z,1010.45
2023-12-15T00:51:02.638Z,1010.48
2023-12-15T00:52:02.626Z,1010.52
2023-12-15T00:53:02.678Z,1010.52
2023-12-15T00:54:02.622Z,1010.55
2023-12-15T00:55:02.733Z,1010.54
2023-12-15T00:56:02.649Z,1010.57
2023-12-15T00:57:02.591Z,1010.57
2023-12-15T00:58:03.070Z,1010.62
2023-12-15T00:59:02.644Z,1010.63
2023-12-15T01:00:02.608Z,1010.64
2023-12-15T01:01:02.584Z,1010.66
2023-12-15T01:02:02.624Z,1010.64
2023-12-15T01:03:02.581Z,1010.67
2023-12-15T01:04:02.525Z,1010.71
2023-12-15T01:05:02.719Z,1010.72
2023-12-15T01:06:02.751Z,1010.73
2023-12-15T01:07:02.528Z,1010.76
2023-12-15T01:08:02.612Z,1010.74
2023-12-15T01:09:02.504Z,1010.71
2023-12-15T01:10:02.502Z,1010.70
2023-12-15T01:11:02.532Z,1010.66
2023-12-15T01:12:02.476Z,1010.70
2023-12-15T01:13:02.524Z,1010.72
2023-12-15T01:14:03.699Z,1010.75
2023-12-15T01:15:02.704Z,1010.73
2023-12-15T01:16:02.481Z,1010.72
2023-12-15T01:17:02.506Z,1010.75
2023-12-15T01:18:02.612Z,1010.80
2023-12-15T01:19:02.516Z,1010.84
2023-12-15T01:20:02.611Z,1010.91
2023-12-15T01:21:02.475Z,1010.93
2023-12-15T01:22:02.418Z,1010.91
2023-12-15T01:23:02.466Z,1010.91
2023-12-15T01:24:02.411Z,1010.89
2023-12-15T01:25:03.418Z,1010.85
2023-12-15T01:26:02.425Z,1010.89
2023-12-15T01:27:02.418Z,1010.83
2023-12-15T01:28:02.460Z,1010.87
2023-12-15T01:29:02.431Z,1010.90
2023-12-15T01:30:02.403Z,1010.85
2023-12-15T01:31:03.138Z,1010.90
2023-12-15T01:32:02.492Z,1010.96
2023-12-15T01:33:02.416Z,1010.99
2023-12-15T01:34:02.453Z,1011.04
2023-12-15T01:35:02.433Z,1011.03
2023-12-15T01:36:02.324Z,1011.09
2023-12-15T01:37:02.326Z,1011.06
2023-12-15T01:38:02.602Z,1011.10
2023-12-15T01:39:02.345Z,1011.10
2023-12-15T01:40:02.344Z,1011.09
2023-12-15T01:41:02.330Z,1011.14
2023-12-15T01:42:02.327Z,1011.10
2023-12-15T01:43:02.306Z,1011.13
2023-12-15T01:44:02.438Z,1011.14
2023-12-15T01:45:02.278Z,1011.12
2023-12-15T01:46:08.770Z,1011.10
2023-12-15T01:47:03.342Z,1011.12
2023-12-15T01:48:02.450Z,1011.08
2023-12-15T01:49:02.356Z,1011.06
2023-12-15T01:50:02.344Z,1011.08
2023-12-15T01:51:02.239Z,1011.18
2023-12-15T01:52:02.254Z,1011.21
2023-12-15T01:53:02.297Z,1011.24
2023-12-15T01:54:02.238Z,1011.25
2023-12-15T01:55:02.216Z,1011.33
2023-12-15T01:56:02.256Z,1011.31
2023-12-15T01:57:02.203Z,1011.37
2023-12-15T01:58:02.274Z,1011.37
2023-12-15T01:59:02.284Z,1011.38
2023-12-15T02:00:02.252Z,1011.39
2023-12-15T02:01:02.257Z,1011.48
2023-12-15T02:02:02.194Z,1011.44
2023-12-15T02:03:02.164Z,1011.42
2023-12-15T02:04:02.237Z,1011.43
2023-12-15T02:05:02.238Z,1011.46
2023-12-15T02:06:02.235Z,1011.46
2023-12-15T02:07:02.148Z,1011.46
2023-12-15T02:08:02.163Z,1011.45
2023-12-15T02:09:02.149Z,1011.45
2023-12-15T02:10:02.130Z,1011.47
2023-12-15T02:11:02.153Z,1011.43
2023-12-15T02:12:02.114Z,1011.45
2023-12-15T02:13:02.128Z,1011.36
2023-12-15T02:14:02.116Z,1011.38
2023-12-15T02:15:02.114Z,1011.36
2023-12-15T02:16:02.086Z,1011.30
2023-12-15T02:17:02.100Z,1011.35
2023-12-15T02:18:02.253Z,1011.27
2023-12-15T02:19:02.158Z,1011.34
2023-12-15T02:20:02.268Z,1011.27
2023-12-15T02:21:03.072Z,1011.28
2023-12-15T02:22:02.048Z,1011.23
2023-12-15T02:23:02.087Z,1011.24
2023-12-15T02:24:02.039Z,1011.28
2023-12-15T02:25:02.073Z,1011.28
2023-12-15T02:26:02.055Z,1011.31
2023-12-15T02:27:03.711Z,1011.31
2023-12-15T02:28:02.021Z,1011.35
2023-12-15T02:29:02.014Z,1011.44
2023-12-15T02:30:02.013Z,1011.44
2023-12-15T02:31:02.020Z,1011.45
2023-12-15T02:32:02.105Z,1011.46
2023-12-15T02:33:02.137Z,1011.44
2023-12-15T02:34:02.033Z,1011.36
2023-12-15T02:35:02.038Z,1011.51
2023-12-15T02:36:01.985Z,1011.48
2023-12-15T02:37:01.960Z,1011.51
2023-12-15T02:38:02.015Z,1011.53
2023-12-15T02:39:01.954Z,1011.58
2023-12-15T02:40:01.944Z,1011.62
2023-12-15T02:41:01.966Z,1011.57
2023-12-15T02:42:01.941Z,1011.57
2023-12-15T02:43:01.937Z,1011.53
2023-12-15T02:44:01.920Z,1011.54
2023-12-15T02:45:01.926Z,1011.61
2023-12-15T02:46:01.905Z,1011.53
2023-12-15T02:47:02.019Z,1011.57
2023-12-15T02:48:02.134Z,1011.57
2023-12-15T02:49:01.998Z,1011.54
2023-12-15T02:50:01.924Z,1011.53
2023-12-15T02:51:01.894Z,1011.59
2023-12-15T02:52:01.876Z,1011.63
2023-12-15T02:53:02.058Z,1011.59
2023-12-15T02:54:01.894Z,1011.54
2023-12-15T02:55:01.853Z,1011.60
2023-12-15T02:56:02.781Z,1011.64
2023-12-15T02:57:01.849Z,1011.66
2023-12-15T02:58:01.891Z,1011.68
2023-12-15T02:59:01.847Z,1011.71
2023-12-15T03:00:01.833Z,1011.75
2023-12-15T03:01:01.886Z,1011.69
2023-12-15T03:02:01.968Z,1011.73
2023-12-15T03:03:01.839Z,1011.70
2023-12-15T03:04:01.790Z,1011.67
2023-12-15T03:05:01.811Z,1011.68
2023-12-15T03:06:02.864Z,1011.68
2023-12-15T03:07:02.731Z,1011.66
2023-12-15T03:08:01.835Z,1011.61
2023-12-15T03:09:01.779Z,1011.68
2023-12-15T03:10:01.763Z,1011.64
2023-12-15T03:11:01.782Z,1011.67
2023-12-15T03:12:01.777Z,1011.66
2023-12-15T03:13:01.743Z,1011.69
2023-12-15T03:14:01.764Z,1011.66
2023-12-15T03:15:01.735Z,1011.61
2023-12-15T03:16:01.723Z,1011.61
2023-12-15T03:17:01.930Z,1011.63
2023-12-15T03:18:35.205Z,1011.68
2023-12-15T03:19:01.741Z,1011.63
2023-12-15T03:20:35.185Z,1011.70
2023-12-15T03:21:01.694Z,1011.71
2023-12-15T03:22:01.685Z,1011.75
2023-12-15T03:23:01.737Z,1011.72
2023-12-15T03:24:01.691Z,1011.75
2023-12-15T03:25:01.666Z,1011.78
2023-12-15T03:26:01.715Z,1011.78
2023-12-15T03:27:35.183Z,1011.83
2023-12-15T03:28:35.114Z,1011.77
2023-12-15T03:29:01.694Z,1011.77
2023-12-15T03:30:01.636Z,1011.76
2023-12-15T03:31:01.651Z,1011.77
2023-12-15T03:32:01.675Z,1011.75
2023-12-15T03:33:01.702Z,1011.79
2023-12-15T03:34:01.685Z,1011.81
2023-12-15T03:35:02.318Z,1011.79
2023-12-15T03:36:01.614Z,1011.84
2023-12-15T03:37:01.617Z,1011.88
2023-12-15T03:38:01.619Z,1011.86
2023-12-15T03:39:01.611Z,1011.84
2023-12-15T03:40:01.591Z,1011.91
2023-12-15T03:41:01.586Z,1011.87
2023-12-15T03:42:01.557Z,1011.91
2023-12-15T03:43:01.564Z,1011.93
2023-12-15T03:44:01.677Z,1011.92
2023-12-15T03:45:01.573Z,1011.93
2023-12-15T03:46:01.534Z,1011.94
2023-12-15T03:47:01.569Z,1011.88
2023-12-15T03:48:01.640Z,1011.89
2023-12-15T03:49:01.557Z,1011.94
2023-12-15T03:50:01.607Z,1011.99
2023-12-15T03:51:01.687Z,1011.98
2023-12-15T03:52:01.536Z,1012.05
2023-12-15T03:53:01.590Z,1012.05
2023-12-15T03:54:01.517Z,1011.97
2023-12-15T03:55:01.502Z,1012.02
2023-12-15T03:56:01.535Z,1012.03
2023-12-15T03:57:01.487Z,1012.05
2023-12-15T03:58:01.473Z,1012.03
2023-12-15T03:59:01.484Z,1012.11
2023-12-15T04:00:01.503Z,1012.10
2023-12-15T04:01:01.514Z,1012.08
2023-12-15T04:02:01.491Z,1012.11
2023-12-15T04:03:01.462Z,1012.10
2023-12-15T04:04:01.431Z,1012.08
2023-12-15T04:05:01.503Z,1012.05
2023-12-15T04:06:01.487Z,1012.04
2023-12-15T04:07:01.413Z,1012.09
2023-12-15T04:08:01.474Z,1012.08
2023-12-15T04:09:01.410Z,1012.02
2023-12-15T04:10:01.416Z,1012.05
2023-12-15T04:11:01.478Z,1012.12
2023-12-15T04:12:01.392Z,1012.05
2023-12-15T04:13:01.373Z,1012.05
2023-12-15T04:14:01.415Z,1012.05
2023-12-15T04:15:01.376Z,1012.08
2023-12-15T04:16:01.390Z,1012.07
2023-12-15T04:17:01.389Z,1012.15
2023-12-15T04:18:01.693Z,1012.09
2023-12-15T04:19:01.457Z,1012.11
2023-12-15T04:20:01.594Z,1012.15
2023-12-15T04:21:01.341Z,1012.18
2023-12-15T04:22:01.325Z,1012.17
2023-12-15T04:23:01.346Z,1012.22
2023-12-15T04:24:01.326Z,1012.21
2023-12-15T04:25:01.332Z,1012.21
2023-12-15T04:26:01.447Z,1012.27
2023-12-15T04:27:01.346Z,1012.25
2023-12-15T04:28:01.286Z,1012.22
2023-12-15T04:29:01.324Z,1012.19
2023-12-15T04:30:01.279Z,1012.26
2023-12-15T04:31:01.280Z,1012.26
2023-12-15T04:32:01.306Z,1012.35
2023-12-15T04:33:01.328Z,1012.24
2023-12-15T04:34:01.306Z,1012.28
2023-12-15T04:35:01.336Z,1012.34
2023-12-15T04:36:01.250Z,1012.33
2023-12-15T04:37:01.243Z,1012.41
2023-12-15T04:38:01.270Z,1012.39
2023-12-15T04:39:01.262Z,1012.41
2023-12-15T04:40:01.216Z,1012.42
2023-12-15T04:41:01.236Z,1012.41
2023-12-15T04:42:01.314Z,1012.39
2023-12-15T04:43:01.207Z,1012.38
2023-12-15T04:44:01.237Z,1012.42
2023-12-15T04:45:01.188Z,1012.43
2023-12-15T04:46:01.181Z,1012.43
2023-12-15T04:47:01.197Z,1012.43
2023-12-15T04:48:01.405Z,1012.39
2023-12-15T04:49:01.302Z,1012.45
2023-12-15T04:50:01.230Z,1012.47
2023-12-15T04:51:01.153Z,1012.48
2023-12-15T04:52:01.200Z,1012.45
2023-12-15T04:53:01.266Z,1012.47
2023-12-15T04:54:01.157Z,1012.49
2023-12-15T04:55:01.140Z,1012.42
2023-12-15T04:56:01.155Z,1012.45
2023-12-15T04:57:01.153Z,1012.45
2023-12-15T04:58:01.117Z,1012.48
2023-12-15T04:59:01.126Z,1012.48
2023-12-15T05:00:01.161Z,1012.47
2023-12-15T05:01:01.095Z,1012.45
2023-12-15T05:02:01.116Z,1012.47
2023-12-15T05:03:01.105Z,1012.45
2023-12-15T05:04:02.069Z,1012.45
2023-12-15T05:05:01.107Z,1012.48
2023-12-15T05:06:01.115Z,1012.49
2023-12-15T05:07:01.042Z,1012.48
2023-12-15T05:08:01.088Z,1012.44
2023-12-15T05:09:01.058Z,1012.47
2023-12-15T05:10:01.091Z,1012.45
2023-12-15T05:11:01.052Z,1012.52
2023-12-15T05:12:01.019Z,1012.51
2023-12-15T05:13:01.033Z,1012.44
2023-12-15T05:14:01.373Z,1012.49
2023-12-15T05:15:01.000Z,1012.53
2023-12-15T05:16:00.985Z,1012.47
2023-12-15T05:17:02.868Z,1012.55
2023-12-15T05:18:01.226Z,1012.56
2023-12-15T05:19:01.274Z,1012.54
2023-12-15T05:20:01.016Z,1012.59
2023-12-15T05:21:01.769Z,1012.66
2023-12-15T05:22:01.017Z,1012.64
2023-12-15T05:23:01.004Z,1012.66
2023-12-15T05:24:00.987Z,1012.67
2023-12-15T05:25:00.934Z,1012.62
2023-12-15T05:26:00.996Z,1012.63
2023-12-15T05:27:00.960Z,1012.62
2023-12-15T05:28:00.922Z,1012.68
2023-12-15T05:29:00.971Z,1012.65
2023-12-15T05:30:00.904Z,1012.64
2023-12-15T05:31:00.945Z,1012.71
2023-12-15T05:32:00.937Z,1012.70
2023-12-15T05:33:02.925Z,1012.71
2023-12-15T05:34:00.960Z,1012.78
2023-12-15T05:35:04.223Z,1012.80
2023-12-15T05:36:01.880Z,1012.81
2023-12-15T05:37:00.864Z,1012.86
2023-12-15T05:38:00.886Z,1012.87
2023-12-15T05:39:00.869Z,1012.86
2023-12-15T05:40:00.855Z,1012.86
2023-12-15T05:41:00.891Z,1012.89
2023-12-15T05:42:00.932Z,1012.89
2023-12-15T05:43:00.882Z,1012.88
2023-12-15T05:44:00.849Z,1012.94
2023-12-15T05:45:00.840Z,1012.94
2023-12-15T05:46:00.816Z,1012.96
2023-12-15T05:47:00.961Z,1012.91
2023-12-15T05:48:00.918Z,1012.90
2023-12-15T05:49:00.981Z,1012.88
2023-12-15T05:50:01.028Z,1012.89
2023-12-15T05:51:00.860Z,1012.87
2023-12-15T05:52:00.845Z,1012.90
2023-12-15T05:53:00.852Z,1012.88
2023-12-15T05:54:00.820Z,1012.92
2023-12-15T05:55:00.747Z,1012.95
2023-12-15T05:56:00.800Z,1012.95
2023-12-15T05:57:00.760Z,1012.96
2023-12-15T05:58:00.759Z,1012.90
2023-12-15T05:59:00.787Z,1012.95
2023-12-15T06:00:00.781Z,1012.87
2023-12-15T06:01:00.770Z,1012.96
2023-12-15T06:02:00.826Z,1012.93
2023-12-15T06:03:00.830Z,1012.99
2023-12-15T06:04:00.711Z,1013.02
2023-12-15T06:05:01.518Z,1013.00
2023-12-15T06:06:00.731Z,1012.96
2023-12-15T06:07:00.682Z,1012.94
2023-12-15T06:08:00.791Z,1012.95
2023-12-15T06:09:00.703Z,1012.93
2023-12-15T06:10:00.649Z,1012.97
2023-12-15T06:11:00.717Z,1012.97
2023-12-15T06:12:00.634Z,1012.96
2023-12-15T06:13:00.643Z,1012.98
2023-12-15T06:14:00.682Z,1012.98
2023-12-15T06:15:00.642Z,1012.97
2023-12-15T06:16:00.622Z,1013.03
2023-12-15T06:17:00.618Z,1012.98
2023-12-15T06:18:00.766Z,1012.94
2023-12-15T06:19:00.714Z,1013.00
2023-12-15T06:20:00.702Z,1012.96
2023-12-15T06:21:00.584Z,1012.96
2023-12-15T06:22:00.582Z,1012.94
2023-12-15T06:23:00.635Z,1012.96
2023-12-15T06:24:00.600Z,1012.96
2023-12-15T06:25:00.564Z,1012.99
2023-12-15T06:26:00.653Z,1013.02
2023-12-15T06:27:00.558Z,1013.02
2023-12-15T06:28:00.558Z,1012.90
2023-12-15T06:29:00.586Z,1012.97
2023-12-15T06:30:00.541Z,1013.02
2023-12-15T06:31:00.609Z,1012.95
2023-12-15T06:32:00.585Z,1013.02
2023-12-15T06:33:00.554Z,1013.01
2023-12-15T06:34:00.586Z,1013.01
2023-12-15T06:35:00.551Z,1012.98
2023-12-15T06:36:00.557Z,1013.02
2023-12-15T06:37:00.565Z,1013.01
2023-12-15T06:38:00.542Z,1013.04
2023-12-15T06:39:00.522Z,1013.12
2023-12-15T06:40:00.545Z,1013.20
2023-12-15T06:41:00.489Z,1013.18
2023-12-15T06:42:00.484Z,1013.23
2023-12-15T06:43:00.448Z,1013.22
2023-12-15T06:44:00.492Z,1013.25
2023-12-15T06:45:00.483Z,1013.30
2023-12-15T06:46:01.426Z,1013.33
2023-12-15T06:47:00.516Z,1013.31
2023-12-15T06:48:00.739Z,1013.37
2023-12-15T06:49:00.476Z,1013.36
2023-12-15T06:50:00.506Z,1013.39
2023-12-15T06:51:00.394Z,1013.36
2023-12-15T06:52:00.572Z,1013.39
2023-12-15T06:53:00.451Z,1013.43
2023-12-15T06:54:00.415Z,1013.41
2023-12-15T06:55:00.400Z,1013.46
2023-12-15T06:56:00.433Z,1013.49
2023-12-15T06:57:00.384Z,1013.39
2023-12-15T06:58:00.368Z,1013.46
2023-12-15T06:59:00.406Z,1013.49
2023-12-15T07:00:00.356Z,1013.53
2023-12-15T07:01:00.392Z,1013.46
2023-12-15T07:02:00.394Z,1013.52
2023-12-15T07:03:00.344Z,1013.54
2023-12-15T07:04:00.410Z,1013.54
2023-12-15T07:05:00.732Z,1013.51
2023-12-15T07:06:00.428Z,1013.56
2023-12-15T07:07:00.849Z,1013.61
2023-12-15T07:08:00.387Z,1013.63
2023-12-15T07:09:00.300Z,1013.63
2023-12-15T07:10:00.353Z,1013.62
2023-12-15T07:11:00.319Z,1013.62
2023-12-15T07:12:00.300Z,1013.63
2023-12-15T07:13:00.289Z,1013.63
2023-12-15T07:14:00.347Z,1013.70
2023-12-15T07:15:00.354Z,1013.65
2023-12-15T07:16:02.335Z,1013.66
2023-12-15T07:17:01.276Z,1013.65
2023-12-15T07:18:00.326Z,1013.65
2023-12-15T07:19:00.343Z,1013.61
2023-12-15T07:20:00.405Z,1013.59
2023-12-15T07:21:00.269Z,1013.67
2023-12-15T07:22:00.227Z,1013.71
2023-12-15T07:23:00.346Z,1013.66
2023-12-15T07:24:00.213Z,1013.69
2023-12-15T07:25:00.224Z,1013.66
2023-12-15T07:26:00.272Z,1013.71
2023-12-15T07:27:00.191Z,1013.75
2023-12-15T07:28:00.186Z,1013.77
2023-12-15T07:29:00.265Z,1013.72
2023-12-15T07:30:00.220Z,1013.77
2023-12-15T07:31:00.195Z,1013.79
2023-12-15T07:32:00.197Z,1013.83
2023-12-15T07:33:00.372Z,1013.80
2023-12-15T07:34:00.207Z,1013.83
2023-12-15T07:35:00.215Z,1013.88
2023-12-15T07:36:00.202Z,1013.87
2023-12-15T07:37:00.115Z,1013.86
2023-12-15T07:38:00.272Z,1013.96
2023-12-15T07:39:00.097Z,1013.93
2023-12-15T07:40:00.528Z,1013.87
2023-12-15T07:41:00.136Z,1013.91
2023-12-15T07:42:00.081Z,1013.90
2023-12-15T07:43:00.070Z,1013.88
2023-12-15T07:44:00.130Z,1013.87
2023-12-15T07:45:00.077Z,1013.90
2023-12-15T07:46:00.096Z,1013.92
2023-12-15T07:47:00.081Z,1013.91
2023-12-15T07:48:00.250Z,1013.96
2023-12-15T07:49:00.147Z,1013.93
2023-12-15T07:50:00.095Z,1013.89
2023-12-15T07:51:00.080Z,1013.92
2023-12-15T07:52:00.021Z,1013.89
2023-12-15T07:53:00.084Z,1013.92
2023-12-15T07:54:01.007Z,1014.00
2023-12-15T07:55:00.032Z,1013.93
2023-12-15T07:56:00.069Z,1013.99
2023-12-15T07:56:59.990Z,1014.01
2023-12-15T07:57:59.990Z,1013.93
2023-12-15T07:59:00.000Z,1013.96
2023-12-15T08:00:00.062Z,1013.94
2023-12-15T08:01:00.024Z,1013.92
2023-12-15T08:02:00.013Z,1013.95
2023-12-15T08:03:00.000Z,1013.93
2023-12-15T08:03:59.944Z,1013.90
2023-12-15T08:04:59.986Z,1013.96
2023-12-15T08:06:00.059Z,1013.87
2023-12-15T08:06:59.909Z,1013.97
2023-12-15T08:07:59.918Z,1014.02
2023-12-15T08:08:59.917Z,1014.02
2023-12-15T08:10:00.798Z,1014.08
2023-12-15T08:11:02.236Z,1014.14
2023-12-15T08:12:00.971Z,1014.09
2023-12-15T08:12:59.884Z,1014.13
2023-12-15T08:13:59.960Z,1014.14
2023-12-15T08:14:59.878Z,1014.12
2023-12-15T08:15:59.864Z,1014.13
2023-12-15T08:16:59.916Z,1014.20
2023-12-15T08:17:59.942Z,1014.22
2023-12-15T08:18:59.980Z,1014.19
2023-12-15T08:19:59.871Z,1014.30
2023-12-15T08:20:59.862Z,1014.23
2023-12-15T08:21:59.832Z,1014.26
2023-12-15T08:22:59.858Z,1014.22
2023-12-15T08:23:59.851Z,1014.21
2023-12-15T08:24:59.802Z,1014.21
2023-12-15T08:26:33.274Z,1014.31
2023-12-15T08:27:33.234Z,1014.29
2023-12-15T08:27:59.836Z,1014.29
2023-12-15T08:28:59.854Z,1014.42
2023-12-15T08:29:59.780Z,1014.33
2023-12-15T08:30:59.866Z,1014.44
2023-12-15T08:31:59.832Z,1014.41
2023-12-15T08:32:59.918Z,1014.49
2023-12-15T08:33:59.812Z,1014.47
2023-12-15T08:34:59.769Z,1014.53
2023-12-15T08:35:59.733Z,1014.67
2023-12-15T08:37:33.181Z,1014.60
2023-12-15T08:37:59.764Z,1014.67
2023-12-15T08:38:59.844Z,1014.72
2023-12-15T08:39:59.739Z,1014.67
2023-12-15T08:40:59.751Z,1014.64
2023-12-15T08:41:59.741Z,1014.69
2023-12-15T08:42:59.685Z,1014.74
2023-12-15T08:44:00.750Z,1014.70
2023-12-15T08:44:59.710Z,1014.66
2023-12-15T08:45:59.684Z,1014.68
2023-12-15T08:46:59.710Z,1014.74
2023-12-15T08:47:59.903Z,1014.74
2023-12-15T08:48:59.769Z,1014.78
2023-12-15T08:49:59.696Z,1014.73
2023-12-15T08:50:59.744Z,1014.77
2023-12-15T08:51:59.635Z,1014.81
2023-12-15T08:52:59.709Z,1014.86
2023-12-15T08:53:59.966Z,1014.85
2023-12-15T08:54:59.638Z,1014.84
2023-12-15T08:55:59.654Z,1014.94
2023-12-15T08:56:59.740Z,1014.91
2023-12-15T08:57:59.596Z,1014.96
2023-12-15T08:58:59.614Z,1014.95
2023-12-15T08:59:59.597Z,1014.97
2023-12-15T09:00:59.673Z,1014.99
2023-12-15T09:01:59.647Z,1014.99
2023-12-15T09:02:59.584Z,1014.99
2023-12-15T09:03:59.630Z,1014.98
2023-12-15T09:05:03.720Z,1015.01
2023-12-15T09:06:23.246Z,1014.95
2023-12-15T09:07:00.626Z,1014.97
2023-12-15T09:07:59.729Z,1014.99
2023-12-15T09:08:59.810Z,1014.99
2023-12-15T09:09:59.549Z,1014.99
2023-12-15T09:10:59.529Z,1015.06
2023-12-15T09:11:59.489Z,1015.06
2023-12-15T09:12:59.529Z,1015.11
2023-12-15T09:13:59.529Z,1015.13
2023-12-15T09:14:59.507Z,1015.17
2023-12-15T09:15:59.571Z,1015.24
2023-12-15T09:16:59.502Z,1015.21
2023-12-15T09:17:59.691Z,1015.22
2023-12-15T09:18:59.584Z,1015.29
2023-12-15T09:19:59.506Z,1015.25
2023-12-15T09:20:59.451Z,1015.32
2023-12-15T09:21:59.520Z,1015.33
2023-12-15T09:22:59.443Z,1015.30
2023-12-15T09:23:59.423Z,1015.39
2023-12-15T09:24:59.455Z,1015.38
2023-12-15T09:25:59.422Z,1015.43
2023-12-15T09:26:59.418Z,1015.39
2023-12-15T09:27:59.459Z,1015.41
2023-12-15T09:28:59.450Z,1015.35
2023-12-15T09:29:59.392Z,1015.36
2023-12-15T09:30:59.429Z,1015.36
2023-12-15T09:31:59.411Z,1015.41
2023-12-15T09:32:59.413Z,1015.43
2023-12-15T09:33:59.454Z,1015.46
2023-12-15T09:34:59.400Z,1015.49
2023-12-15T09:35:59.359Z,1015.40
2023-12-15T09:36:59.635Z,1015.44
2023-12-15T09:37:59.391Z,1015.44
2023-12-15T09:39:01.771Z,1015.40
2023-12-15T09:39:59.375Z,1015.40
2023-12-15T09:40:59.359Z,1015.48
2023-12-15T09:41:59.374Z,1015.45
2023-12-15T09:42:59.334Z,1015.42
2023-12-15T09:43:59.314Z,1015.48
2023-12-15T09:45:06.736Z,1015.48
2023-12-15T09:46:01.354Z,1015.58
2023-12-15T09:46:59.305Z,1015.61
2023-12-15T09:47:59.343Z,1015.62
2023-12-15T09:48:59.359Z,1015.70
2023-12-15T09:49:59.298Z,1015.73
2023-12-15T09:50:59.285Z,1015.69
2023-12-15T09:51:59.305Z,1015.72
2023-12-15T09:52:59.273Z,1015.74
2023-12-15T09:53:59.241Z,1015.78
2023-12-15T09:54:59.293Z,1015.73
2023-12-15T09:55:59.298Z,1015.64
2023-12-15T09:56:59.292Z,1015.61
2023-12-15T09:57:59.296Z,1015.66
2023-12-15T09:58:59.244Z,1015.66
2023-12-15T09:59:59.201Z,1015.64
2023-12-15T10:00:59.296Z,1015.57
2023-12-15T10:01:59.193Z,1015.68
2023-12-15T10:02:59.348Z,1015.66
2023-12-15T10:03:59.238Z,1015.78
2023-12-15T10:04:59.231Z,1015.70
2023-12-15T10:05:59.180Z,1015.73
2023-12-15T10:06:59.260Z,1015.79
2023-12-15T10:07:59.509Z,1015.84
2023-12-15T10:09:02.647Z,1015.80
2023-12-15T10:09:59.194Z,1015.81
2023-12-15T10:10:59.201Z,1015.82
2023-12-15T10:11:59.138Z,1015.82
2023-12-15T10:12:59.201Z,1015.77
2023-12-15T10:13:59.166Z,1015.82
2023-12-15T10:14:59.110Z,1015.83
2023-12-15T10:15:59.182Z,1015.84
2023-12-15T10:16:59.113Z,1015.89
2023-12-15T10:17:59.398Z,1015.88
2023-12-15T10:18:59.249Z,1015.87
2023-12-15T10:19:59.148Z,1015.89
2023-12-15T10:20:59.112Z,1015.90
2023-12-15T10:21:59.112Z,1016.00
2023-12-15T10:22:59.066Z,1015.98
2023-12-15T10:23:59.100Z,1015.99
2023-12-15T10:24:59.085Z,1016.04
2023-12-15T10:25:59.159Z,1015.97
2023-12-15T10:26:59.032Z,1016.03
2023-12-15T10:28:01.479Z,1016.02
2023-12-15T10:28:59.110Z,1015.93
2023-12-15T10:29:59.052Z,1015.92
2023-12-15T10:30:59.066Z,1015.97
2023-12-15T10:31:59.036Z,1015.93
2023-12-15T10:32:59.376Z,1015.96
2023-12-15T10:34:01.432Z,1016.01
2023-12-15T10:34:58.999Z,1016.05
2023-12-15T10:35:59.002Z,1016.06
2023-12-15T10:36:59.041Z,1016.03
2023-12-15T10:37:58.988Z,1016.00
2023-12-15T10:38:58.965Z,1015.96
2023-12-15T10:40:02.627Z,1015.96
2023-12-15T10:40:59.003Z,1015.99
2023-12-15T10:41:58.994Z,1016.02
2023-12-15T10:42:58.998Z,1016.06
2023-12-15T10:43:58.959Z,1016.03
2023-12-15T10:44:58.959Z,1016.00
2023-12-15T10:46:00.365Z,1016.04
2023-12-15T10:46:58.989Z,1016.09
2023-12-15T10:47:59.212Z,1016.07
2023-12-15T10:48:59.010Z,1016.09
2023-12-15T10:49:59.125Z,1016.06
2023-12-15T10:50:58.909Z,1016.09
2023-12-15T10:52:00.258Z,1016.12
2023-12-15T10:52:58.919Z,1016.05
2023-12-15T10:53:58.956Z,1016.03
2023-12-15T10:54:58.875Z,1016.03
2023-12-15T10:55:58.915Z,1016.09
2023-12-15T10:56:58.844Z,1016.07
2023-12-15T10:58:01.247Z,1016.05
2023-12-15T10:58:58.949Z,1016.11
2023-12-15T10:59:58.824Z,1016.02
2023-12-15T11:00:59.011Z,1016.08
2023-12-15T11:01:59.845Z,1016.08
2023-12-15T11:02:58.798Z,1016.06
2023-12-15T11:04:00.322Z,1016.06
2023-12-15T11:04:58.839Z,1016.05
2023-12-15T11:05:58.877Z,1016.02
2023-12-15T11:06:58.806Z,1016.10
2023-12-15T11:07:58.788Z,1016.12
2023-12-15T11:08:58.792Z,1016.12
2023-12-15T11:10:01.704Z,1016.14
2023-12-15T11:10:58.797Z,1016.10
2023-12-15T11:11:58.779Z,1016.17
2023-12-15T11:12:58.736Z,1016.14
2023-12-15T11:13:58.848Z,1016.19
2023-12-15T11:14:58.719Z,1016.15
2023-12-15T11:15:58.780Z,1016.15
2023-12-15T11:16:58.827Z,1016.18
2023-12-15T11:17:59.164Z,1016.16
2023-12-15T11:18:58.938Z,1016.18
2023-12-15T11:19:58.830Z,1016.17
2023-12-15T11:20:58.733Z,1016.12
2023-12-15T11:21:58.678Z,1016.19
2023-12-15T11:22:58.991Z,1016.13
2023-12-15T11:23:58.843Z,1016.15
2023-12-15T11:24:58.709Z,1016.17
2023-12-15T11:25:58.916Z,1016.12
2023-12-15T11:26:58.720Z,1016.13
2023-12-15T11:27:58.713Z,1016.08
2023-12-15T11:28:58.715Z,1016.05
2023-12-15T11:29:58.650Z,1016.08
2023-12-15T11:30:58.741Z,1016.02
2023-12-15T11:31:59.366Z,1016.12
2023-12-15T11:32:58.713Z,1016.10
2023-12-15T11:33:58.705Z,1016.12
2023-12-15T11:34:58.642Z,1016.08
2023-12-15T11:35:58.600Z,1016.07
2023-12-15T11:36:58.641Z,1016.09
2023-12-15T11:37:58.689Z,1016.05
2023-12-15T11:38:58.639Z,1016.05
2023-12-15T11:39:58.667Z,1016.05
2023-12-15T11:40:58.618Z,1015.98
2023-12-15T11:41:58.583Z,1016.00
2023-12-15T11:42:58.566Z,1016.03
2023-12-15T11:44:01.860Z,1016.01
2023-12-15T11:44:59.351Z,1016.06
2023-12-15T11:45:58.569Z,1016.04
2023-12-15T11:46:58.553Z,1016.08
2023-12-15T11:47:58.651Z,1016.03
2023-12-15T11:48:58.556Z,1016.03
2023-12-15T11:49:58.546Z,1016.10
2023-12-15T11:50:58.579Z,1016.03
2023-12-15T11:51:58.536Z,1016.11
2023-12-15T11:52:58.511Z,1016.07
2023-12-15T11:53:58.497Z,1016.11
2023-12-15T11:54:58.515Z,1016.09
2023-12-15T11:55:58.522Z,1016.13
2023-12-15T11:56:58.500Z,1016.14
2023-12-15T11:57:58.541Z,1016.10
2023-12-15T11:58:58.484Z,1016.13
2023-12-15T11:59:58.600Z,1016.08
2023-12-15T12:00:58.492Z,1016.03
2023-12-15T12:01:58.448Z,1016.05
2023-12-15T12:02:59.912Z,1016.07
2023-12-15T12:03:58.483Z,1016.09
2023-12-15T12:04:58.435Z,1016.10